Reno, Pennsylvania
Current Conditions -  °F | °C
As of 9:15 AM on Saturday 22 Nov 2014 (Local Time) from KFKL Reporting Station
Overcast Overcast  
Wind Chill: -11°   Ceiling: 4400
Heat Index: -4°   Visibility: 10mi
Dew Point: -12°   Wind: 14mph
Humidity: 54%   Direction: 170°S
Pressure: 30.25"   Gusts: NA
Location:  41.41°N, 79.75°W
Report Text: KFKL 221415Z AUTO 17012KT 10SM SCT037 BKN044 OVC050 M04/M12 A3025 RMK AO1
Loading
Personal Weather Stations






























Interactive Weather Map New forecast layout! Learn more

10-Day Weather Forecast

Advertisements
Track Severe Weather on mobile